sensor_id;sensor_type;location;lat;lon;timestamp;temperature;humidity
49132;DHT22;35149;51.196;6.204;2022-07-04T00:00:29;18.10;49.90
49132;DHT22;35149;51.196;6.204;2022-07-04T00:03:04;18.00;50.00
49132;DHT22;35149;51.196;6.204;2022-07-04T00:05:35;18.10;49.50
49132;DHT22;35149;51.196;6.204;2022-07-04T00:08:05;18.00;49.90
49132;DHT22;35149;51.196;6.204;2022-07-04T00:10:32;17.90;49.70
49132;DHT22;35149;51.196;6.204;2022-07-04T00:12:59;17.90;50.10
49132;DHT22;35149;51.196;6.204;2022-07-04T00:15:25;17.80;50.20
49132;DHT22;35149;51.196;6.204;2022-07-04T00:17:52;17.80;50.30
49132;DHT22;35149;51.196;6.204;2022-07-04T00:20:19;17.70;50.50
49132;DHT22;35149;51.196;6.204;2022-07-04T00:22:50;17.70;50.60
49132;DHT22;35149;51.196;6.204;2022-07-04T00:25:17;17.60;50.80
49132;DHT22;35149;51.196;6.204;2022-07-04T00:27:44;17.60;50.70
49132;DHT22;35149;51.196;6.204;2022-07-04T00:30:13;17.60;50.80
49132;DHT22;35149;51.196;6.204;2022-07-04T00:32:42;17.50;51.40
49132;DHT22;35149;51.196;6.204;2022-07-04T00:35:10;17.50;50.80
49132;DHT22;35149;51.196;6.204;2022-07-04T00:37:36;17.40;50.90
49132;DHT22;35149;51.196;6.204;2022-07-04T00:40:04;17.40;50.90
49132;DHT22;35149;51.196;6.204;2022-07-04T00:42:40;17.30;51.20
49132;DHT22;35149;51.196;6.204;2022-07-04T00:45:12;17.30;51.20
49132;DHT22;35149;51.196;6.204;2022-07-04T00:47:41;17.20;51.30
49132;DHT22;35149;51.196;6.204;2022-07-04T00:50:08;17.20;51.10
49132;DHT22;35149;51.196;6.204;2022-07-04T00:52:37;17.20;51.40
49132;DHT22;35149;51.196;6.204;2022-07-04T00:55:04;17.20;51.40
49132;DHT22;35149;51.196;6.204;2022-07-04T00:57:31;17.10;51.50
49132;DHT22;35149;51.196;6.204;2022-07-04T01:00:01;17.10;51.60
49132;DHT22;35149;51.196;6.204;2022-07-04T01:02:27;17.00;51.50
49132;DHT22;35149;51.196;6.204;2022-07-04T01:04:54;17.00;51.50
49132;DHT22;35149;51.196;6.204;2022-07-04T01:07:24;17.00;51.60
49132;DHT22;35149;51.196;6.204;2022-07-04T01:09:51;16.90;51.50
49132;DHT22;35149;51.196;6.204;2022-07-04T01:12:28;16.90;51.60
49132;DHT22;35149;51.196;6.204;2022-07-04T01:14:57;16.80;52.40
49132;DHT22;35149;51.196;6.204;2022-07-04T01:17:24;16.80;51.70
49132;DHT22;35149;51.196;6.204;2022-07-04T01:19:51;16.80;51.80
49132;DHT22;35149;51.196;6.204;2022-07-04T01:22:22;16.70;51.90
49132;DHT22;35149;51.196;6.204;2022-07-04T01:24:52;16.70;51.80
49132;DHT22;35149;51.196;6.204;2022-07-04T01:27:30;16.70;51.90
49132;DHT22;35149;51.196;6.204;2022-07-04T01:29:56;16.60;52.40
49132;DHT22;35149;51.196;6.204;2022-07-04T01:32:23;16.60;51.80
49132;DHT22;35149;51.196;6.204;2022-07-04T01:34:56;16.60;51.90
49132;DHT22;35149;51.196;6.204;2022-07-04T01:37:23;16.60;51.90
49132;DHT22;35149;51.196;6.204;2022-07-04T01:39:49;16.50;52.10
49132;DHT22;35149;51.196;6.204;2022-07-04T01:42:16;16.50;52.20
49132;DHT22;35149;51.196;6.204;2022-07-04T01:44:43;16.50;52.20
49132;DHT22;35149;51.196;6.204;2022-07-04T01:47:10;16.50;52.10
49132;DHT22;35149;51.196;6.204;2022-07-04T01:49:37;16.50;52.40
49132;DHT22;35149;51.196;6.204;2022-07-04T01:52:11;16.40;52.30
49132;DHT22;35149;51.196;6.204;2022-07-04T01:54:41;16.40;52.30
49132;DHT22;35149;51.196;6.204;2022-07-04T01:57:10;16.30;52.30
49132;DHT22;35149;51.196;6.204;2022-07-04T01:59:39;16.30;52.40
49132;DHT22;35149;51.196;6.204;2022-07-04T02:02:28;16.30;52.50
49132;DHT22;35149;51.196;6.204;2022-07-04T02:04:55;16.30;52.40
49132;DHT22;35149;51.196;6.204;2022-07-04T02:07:24;16.30;52.60
49132;DHT22;35149;51.196;6.204;2022-07-04T02:09:53;16.20;52.80
49132;DHT22;35149;51.196;6.204;2022-07-04T02:12:22;16.20;53.30
49132;DHT22;35149;51.196;6.204;2022-07-04T02:15:15;16.10;52.60
49132;DHT22;35149;51.196;6.204;2022-07-04T02:17:42;16.10;52.80
49132;DHT22;35149;51.196;6.204;2022-07-04T02:20:15;16.10;52.80
49132;DHT22;35149;51.196;6.204;2022-07-04T02:22:46;16.10;53.00
49132;DHT22;35149;51.196;6.204;2022-07-04T02:25:23;16.10;53.30
49132;DHT22;35149;51.196;6.204;2022-07-04T02:27:54;16.00;53.70
49132;DHT22;35149;51.196;6.204;2022-07-04T02:30:23;16.00;53.60
49132;DHT22;35149;51.196;6.204;2022-07-04T02:32:50;16.00;53.70
49132;DHT22;35149;51.196;6.204;2022-07-04T02:35:22;16.00;53.70
49132;DHT22;35149;51.196;6.204;2022-07-04T02:37:51;16.00;53.60
49132;DHT22;35149;51.196;6.204;2022-07-04T02:40:17;16.00;53.60
49132;DHT22;35149;51.196;6.204;2022-07-04T02:42:44;16.00;53.60
49132;DHT22;35149;51.196;6.204;2022-07-04T02:45:11;16.00;53.70
49132;DHT22;35149;51.196;6.204;2022-07-04T02:47:38;16.00;53.70
49132;DHT22;35149;51.196;6.204;2022-07-04T02:50:06;15.90;53.80
49132;DHT22;35149;51.196;6.204;2022-07-04T02:52:32;15.90;53.90
49132;DHT22;35149;51.196;6.204;2022-07-04T02:54:59;15.90;53.80
49132;DHT22;35149;51.196;6.204;2022-07-04T02:57:28;15.90;53.80
49132;DHT22;35149;51.196;6.204;2022-07-04T02:59:59;15.90;53.70
49132;DHT22;35149;51.196;6.204;2022-07-04T03:02:37;15.90;53.70
49132;DHT22;35149;51.196;6.204;2022-07-04T03:05:04;15.80;53.60
49132;DHT22;35149;51.196;6.204;2022-07-04T03:07:31;15.80;53.60
49132;DHT22;35149;51.196;6.204;2022-07-04T03:10:05;15.80;53.70
49132;DHT22;35149;51.196;6.204;2022-07-04T03:12:37;15.70;53.60
49132;DHT22;35149;51.196;6.204;2022-07-04T03:15:04;15.70;53.70
49132;DHT22;35149;51.196;6.204;2022-07-04T03:17:37;15.70;53.80
49132;DHT22;35149;51.196;6.204;2022-07-04T03:20:06;15.60;53.70
49132;DHT22;35149;51.196;6.204;2022-07-04T03:22:38;15.60;53.80
49132;DHT22;35149;51.196;6.204;2022-07-04T03:25:07;15.60;53.70
49132;DHT22;35149;51.196;6.204;2022-07-04T03:27:40;15.60;53.80
49132;DHT22;35149;51.196;6.204;2022-07-04T03:30:07;15.50;53.90
49132;DHT22;35149;51.196;6.204;2022-07-04T03:32:39;15.50;53.90
49132;DHT22;35149;51.196;6.204;2022-07-04T03:35:09;15.50;54.20
49132;DHT22;35149;51.196;6.204;2022-07-04T03:37:35;15.50;53.90
49132;DHT22;35149;51.196;6.204;2022-07-04T03:40:05;15.50;54.10
49132;DHT22;35149;51.196;6.204;2022-07-04T03:42:34;15.40;54.10
49132;DHT22;35149;51.196;6.204;2022-07-04T03:45:04;15.40;54.50
49132;DHT22;35149;51.196;6.204;2022-07-04T03:47:33;15.40;54.40
49132;DHT22;35149;51.196;6.204;2022-07-04T03:50:03;15.40;54.40
49132;DHT22;35149;51.196;6.204;2022-07-04T03:52:32;15.30;54.40
49132;DHT22;35149;51.196;6.204;2022-07-04T03:55:05;15.40;54.50
49132;DHT22;35149;51.196;6.204;2022-07-04T03:57:34;15.30;54.60
49132;DHT22;35149;51.196;6.204;2022-07-04T04:00:02;15.30;54.60
49132;DHT22;35149;51.196;6.204;2022-07-04T04:02:37;15.30;54.70
49132;DHT22;35149;51.196;6.204;2022-07-04T04:05:13;15.30;54.80
49132;DHT22;35149;51.196;6.204;2022-07-04T04:07:58;15.30;55.00
49132;DHT22;35149;51.196;6.204;2022-07-04T04:10:28;15.30;55.10
49132;DHT22;35149;51.196;6.204;2022-07-04T04:12:55;15.30;55.30
49132;DHT22;35149;51.196;6.204;2022-07-04T04:15:24;15.30;55.30
49132;DHT22;35149;51.196;6.204;2022-07-04T04:17:50;15.40;55.50
49132;DHT22;35149;51.196;6.204;2022-07-04T04:20:19;15.30;55.70
49132;DHT22;35149;51.196;6.204;2022-07-04T04:22:46;15.40;55.90
49132;DHT22;35149;51.196;6.204;2022-07-04T04:25:14;15.40;56.00
49132;DHT22;35149;51.196;6.204;2022-07-04T04:27:41;15.40;56.20
49132;DHT22;35149;51.196;6.204;2022-07-04T04:30:17;15.40;56.50
49132;DHT22;35149;51.196;6.204;2022-07-04T04:32:45;15.50;56.60
49132;DHT22;35149;51.196;6.204;2022-07-04T04:35:14;15.60;56.90
49132;DHT22;35149;51.196;6.204;2022-07-04T04:37:44;15.60;57.40
49132;DHT22;35149;51.196;6.204;2022-07-04T04:40:11;15.60;57.30
49132;DHT22;35149;51.196;6.204;2022-07-04T04:42:40;15.60;58.10
49132;DHT22;35149;51.196;6.204;2022-07-04T04:45:10;15.70;57.60
49132;DHT22;35149;51.196;6.204;2022-07-04T04:47:36;15.70;57.60
49132;DHT22;35149;51.196;6.204;2022-07-04T04:50:10;15.80;57.80
49132;DHT22;35149;51.196;6.204;2022-07-04T04:52:38;15.90;57.90
49132;DHT22;35149;51.196;6.204;2022-07-04T04:55:07;15.90;58.00
49132;DHT22;35149;51.196;6.204;2022-07-04T04:57:40;15.90;58.30
49132;DHT22;35149;51.196;6.204;2022-07-04T05:00:11;16.00;59.30
49132;DHT22;35149;51.196;6.204;2022-07-04T05:02:38;16.10;59.30
49132;DHT22;35149;51.196;6.204;2022-07-04T05:05:05;16.10;59.60
49132;DHT22;35149;51.196;6.204;2022-07-04T05:07:32;16.30;59.80
49132;DHT22;35149;51.196;6.204;2022-07-04T05:10:03;16.30;59.90
49132;DHT22;35149;51.196;6.204;2022-07-04T05:12:31;16.40;60.00
49132;DHT22;35149;51.196;6.204;2022-07-04T05:15:05;16.60;60.00
49132;DHT22;35149;51.196;6.204;2022-07-04T05:17:31;16.60;59.90
49132;DHT22;35149;51.196;6.204;2022-07-04T05:19:58;16.70;59.80
49132;DHT22;35149;51.196;6.204;2022-07-04T05:22:25;16.80;59.80
49132;DHT22;35149;51.196;6.204;2022-07-04T05:25:00;16.90;59.50
49132;DHT22;35149;51.196;6.204;2022-07-04T05:27:30;17.10;59.50
49132;DHT22;35149;51.196;6.204;2022-07-04T05:29:58;17.20;59.40
49132;DHT22;35149;51.196;6.204;2022-07-04T05:32:25;17.20;59.50
49132;DHT22;35149;51.196;6.204;2022-07-04T05:34:53;17.30;59.60
49132;DHT22;35149;51.196;6.204;2022-07-04T05:37:28;17.50;59.50
49132;DHT22;35149;51.196;6.204;2022-07-04T05:39:57;17.50;59.20
49132;DHT22;35149;51.196;6.204;2022-07-04T05:42:24;17.60;59.40
49132;DHT22;35149;51.196;6.204;2022-07-04T05:44:55;17.70;59.50
49132;DHT22;35149;51.196;6.204;2022-07-04T05:47:24;17.80;59.40
49132;DHT22;35149;51.196;6.204;2022-07-04T05:49:51;17.90;59.20
49132;DHT22;35149;51.196;6.204;2022-07-04T05:52:18;17.90;59.00
49132;DHT22;35149;51.196;6.204;2022-07-04T05:54:45;18.00;58.50
49132;DHT22;35149;51.196;6.204;2022-07-04T05:57:12;18.10;58.20
49132;DHT22;35149;51.196;6.204;2022-07-04T05:59:43;18.20;57.90
49132;DHT22;35149;51.196;6.204;2022-07-04T06:02:11;18.30;57.90
49132;DHT22;35149;51.196;6.204;2022-07-04T06:04:40;18.40;57.90
49132;DHT22;35149;51.196;6.204;2022-07-04T06:07:07;18.50;57.90
49132;DHT22;35149;51.196;6.204;2022-07-04T06:09:35;18.50;57.40
49132;DHT22;35149;51.196;6.204;2022-07-04T06:12:04;18.60;57.60
49132;DHT22;35149;51.196;6.204;2022-07-04T06:14:36;18.60;57.50
49132;DHT22;35149;51.196;6.204;2022-07-04T06:17:03;18.80;58.10
49132;DHT22;35149;51.196;6.204;2022-07-04T06:19:33;18.80;56.90
49132;DHT22;35149;51.196;6.204;2022-07-04T06:22:00;18.80;56.60
49132;DHT22;35149;51.196;6.204;2022-07-04T06:24:27;18.90;56.30
49132;DHT22;35149;51.196;6.204;2022-07-04T06:26:53;19.00;56.40
49132;DHT22;35149;51.196;6.204;2022-07-04T06:29:20;19.00;56.10
49132;DHT22;35149;51.196;6.204;2022-07-04T06:31:49;19.10;56.00
49132;DHT22;35149;51.196;6.204;2022-07-04T06:34:16;19.10;56.10
49132;DHT22;35149;51.196;6.204;2022-07-04T06:37:01;19.20;55.90
49132;DHT22;35149;51.196;6.204;2022-07-04T06:39:28;19.20;55.70
49132;DHT22;35149;51.196;6.204;2022-07-04T06:41:56;19.30;55.90
49132;DHT22;35149;51.196;6.204;2022-07-04T06:44:27;19.30;55.90
49132;DHT22;35149;51.196;6.204;2022-07-04T06:46:54;19.40;56.10
49132;DHT22;35149;51.196;6.204;2022-07-04T06:49:22;19.40;55.80
49132;DHT22;35149;51.196;6.204;2022-07-04T06:51:49;19.50;55.70
49132;DHT22;35149;51.196;6.204;2022-07-04T06:54:16;19.60;55.90
49132;DHT22;35149;51.196;6.204;2022-07-04T06:56:43;19.60;56.00
49132;DHT22;35149;51.196;6.204;2022-07-04T06:59:12;19.70;55.90
49132;DHT22;35149;51.196;6.204;2022-07-04T07:01:39;19.70;55.50
49132;DHT22;35149;51.196;6.204;2022-07-04T07:04:06;19.80;55.60
49132;DHT22;35149;51.196;6.204;2022-07-04T07:06:33;19.80;55.90
49132;DHT22;35149;51.196;6.204;2022-07-04T07:08:59;19.90;55.80
49132;DHT22;35149;51.196;6.204;2022-07-04T07:11:31;20.00;55.40
49132;DHT22;35149;51.196;6.204;2022-07-04T07:14:00;20.00;55.60
49132;DHT22;35149;51.196;6.204;2022-07-04T07:16:27;20.00;55.60
49132;DHT22;35149;51.196;6.204;2022-07-04T07:18:58;20.00;55.70
49132;DHT22;35149;51.196;6.204;2022-07-04T07:21:25;20.10;55.50
49132;DHT22;35149;51.196;6.204;2022-07-04T07:23:52;20.20;55.10
49132;DHT22;35149;51.196;6.204;2022-07-04T07:26:21;20.20;54.90
49132;DHT22;35149;51.196;6.204;2022-07-04T07:28:48;20.20;54.50
49132;DHT22;35149;51.196;6.204;2022-07-04T07:31:15;20.30;54.60
49132;DHT22;35149;51.196;6.204;2022-07-04T07:33:44;20.40;54.60
49132;DHT22;35149;51.196;6.204;2022-07-04T07:36:10;20.40;54.90
49132;DHT22;35149;51.196;6.204;2022-07-04T07:38:37;20.50;54.40
49132;DHT22;35149;51.196;6.204;2022-07-04T07:41:08;20.50;54.30
49132;DHT22;35149;51.196;6.204;2022-07-04T07:43:35;20.60;53.90
49132;DHT22;35149;51.196;6.204;2022-07-04T07:46:05;20.60;53.90
49132;DHT22;35149;51.196;6.204;2022-07-04T07:48:33;20.70;54.60
49132;DHT22;35149;51.196;6.204;2022-07-04T07:51:05;20.70;53.80
49132;DHT22;35149;51.196;6.204;2022-07-04T07:53:32;20.80;53.60
49132;DHT22;35149;51.196;6.204;2022-07-04T07:56:01;20.80;53.30
49132;DHT22;35149;51.196;6.204;2022-07-04T07:58:29;20.90;53.40
49132;DHT22;35149;51.196;6.204;2022-07-04T08:00:55;21.00;53.20
49132;DHT22;35149;51.196;6.204;2022-07-04T08:03:23;21.00;53.10
49132;DHT22;35149;51.196;6.204;2022-07-04T08:06:13;21.00;53.20
49132;DHT22;35149;51.196;6.204;2022-07-04T08:08:43;21.10;53.60
49132;DHT22;35149;51.196;6.204;2022-07-04T08:11:11;21.10;53.40
49132;DHT22;35149;51.196;6.204;2022-07-04T08:13:39;21.20;53.40
49132;DHT22;35149;51.196;6.204;2022-07-04T08:16:08;21.20;52.70
49132;DHT22;35149;51.196;6.204;2022-07-04T08:18:45;21.20;52.70
49132;DHT22;35149;51.196;6.204;2022-07-04T08:21:13;21.30;52.30
49132;DHT22;35149;51.196;6.204;2022-07-04T08:23:47;21.30;52.20
49132;DHT22;35149;51.196;6.204;2022-07-04T08:26:39;21.30;51.70
49132;DHT22;35149;51.196;6.204;2022-07-04T08:29:19;21.40;51.80
49132;DHT22;35149;51.196;6.204;2022-07-04T08:31:49;21.40;51.60
49132;DHT22;35149;51.196;6.204;2022-07-04T08:34:20;21.50;51.60
49132;DHT22;35149;51.196;6.204;2022-07-04T08:36:49;21.50;51.40
49132;DHT22;35149;51.196;6.204;2022-07-04T08:39:16;21.60;51.40
49132;DHT22;35149;51.196;6.204;2022-07-04T08:41:43;21.60;51.30
49132;DHT22;35149;51.196;6.204;2022-07-04T08:44:13;21.60;51.70
49132;DHT22;35149;51.196;6.204;2022-07-04T08:46:48;21.70;51.40
49132;DHT22;35149;51.196;6.204;2022-07-04T08:49:21;21.70;51.60
49132;DHT22;35149;51.196;6.204;2022-07-04T08:52:00;21.80;50.70
49132;DHT22;35149;51.196;6.204;2022-07-04T08:57:27;21.90;50.20
49132;DHT22;35149;51.196;6.204;2022-07-04T09:00:12;21.90;49.60
49132;DHT22;35149;51.196;6.204;2022-07-04T09:02:42;21.90;49.60
49132;DHT22;35149;51.196;6.204;2022-07-04T09:05:09;22.00;49.60
49132;DHT22;35149;51.196;6.204;2022-07-04T09:07:39;22.00;50.30
49132;DHT22;35149;51.196;6.204;2022-07-04T09:10:09;22.00;49.40
49132;DHT22;35149;51.196;6.204;2022-07-04T09:12:38;22.10;49.70
49132;DHT22;35149;51.196;6.204;2022-07-04T09:15:25;22.10;49.20
49132;DHT22;35149;51.196;6.204;2022-07-04T09:17:52;22.20;49.50
49132;DHT22;35149;51.196;6.204;2022-07-04T09:20:27;22.20;49.30
49132;DHT22;35149;51.196;6.204;2022-07-04T09:22:56;22.30;49.40
49132;DHT22;35149;51.196;6.204;2022-07-04T09:25:25;22.30;50.10
49132;DHT22;35149;51.196;6.204;2022-07-04T09:27:56;22.40;49.30
49132;DHT22;35149;51.196;6.204;2022-07-04T09:30:27;22.40;49.40
49132;DHT22;35149;51.196;6.204;2022-07-04T09:32:56;22.50;49.10
49132;DHT22;35149;51.196;6.204;2022-07-04T09:35:28;22.50;49.60
49132;DHT22;35149;51.196;6.204;2022-07-04T09:38:00;22.60;48.60
49132;DHT22;35149;51.196;6.204;2022-07-04T09:40:37;22.70;48.10
49132;DHT22;35149;51.196;6.204;2022-07-04T09:43:27;22.70;47.80
49132;DHT22;35149;51.196;6.204;2022-07-04T09:45:59;22.80;47.00
49132;DHT22;35149;51.196;6.204;2022-07-04T09:48:49;22.80;47.30
49132;DHT22;35149;51.196;6.204;2022-07-04T09:51:47;22.90;47.10
49132;DHT22;35149;51.196;6.204;2022-07-04T09:56:52;23.00;46.40
49132;DHT22;35149;51.196;6.204;2022-07-04T09:59:22;23.00;46.20
49132;DHT22;35149;51.196;6.204;2022-07-04T10:01:50;23.00;46.40
49132;DHT22;35149;51.196;6.204;2022-07-04T10:04:22;23.10;47.60
49132;DHT22;35149;51.196;6.204;2022-07-04T10:06:52;23.30;47.50
49132;DHT22;35149;51.196;6.204;2022-07-04T10:09:21;23.30;47.30
49132;DHT22;35149;51.196;6.204;2022-07-04T10:11:48;23.40;46.60
49132;DHT22;35149;51.196;6.204;2022-07-04T10:14:17;23.50;47.10
49132;DHT22;35149;51.196;6.204;2022-07-04T10:16:46;23.60;46.90
49132;DHT22;35149;51.196;6.204;2022-07-04T10:19:16;23.70;46.00
49132;DHT22;35149;51.196;6.204;2022-07-04T10:21:46;23.80;46.00
49132;DHT22;35149;51.196;6.204;2022-07-04T10:24:16;24.00;46.40
49132;DHT22;35149;51.196;6.204;2022-07-04T10:26:43;24.00;46.00
49132;DHT22;35149;51.196;6.204;2022-07-04T10:29:14;24.10;45.90
49132;DHT22;35149;51.196;6.204;2022-07-04T10:31:44;24.20;45.00
49132;DHT22;35149;51.196;6.204;2022-07-04T10:34:11;24.30;44.10
49132;DHT22;35149;51.196;6.204;2022-07-04T10:36:38;24.40;44.00
49132;DHT22;35149;51.196;6.204;2022-07-04T10:39:07;24.40;43.30
49132;DHT22;35149;51.196;6.204;2022-07-04T10:41:58;24.50;43.00
49132;DHT22;35149;51.196;6.204;2022-07-04T10:44:26;24.50;42.80
49132;DHT22;35149;51.196;6.204;2022-07-04T10:46:56;24.60;43.00
49132;DHT22;35149;51.196;6.204;2022-07-04T10:49:26;24.60;42.80
49132;DHT22;35149;51.196;6.204;2022-07-04T10:52:12;24.70;43.20
49132;DHT22;35149;51.196;6.204;2022-07-04T10:54:44;24.70;43.30
49132;DHT22;35149;51.196;6.204;2022-07-04T10:57:15;24.90;43.20
49132;DHT22;35149;51.196;6.204;2022-07-04T11:02:34;24.90;42.10
49132;DHT22;35149;51.196;6.204;2022-07-04T11:05:10;24.90;42.60
49132;DHT22;35149;51.196;6.204;2022-07-04T11:18:08;24.90;41.00
49132;DHT22;35149;51.196;6.204;2022-07-04T11:20:45;24.90;40.80
49132;DHT22;35149;51.196;6.204;2022-07-04T11:23:18;24.90;41.20
49132;DHT22;35149;51.196;6.204;2022-07-04T11:25:52;25.00;41.40
49132;DHT22;35149;51.196;6.204;2022-07-04T11:28:27;25.10;41.00
49132;DHT22;35149;51.196;6.204;2022-07-04T11:31:12;25.10;41.70
49132;DHT22;35149;51.196;6.204;2022-07-04T11:33:41;25.30;41.00
49132;DHT22;35149;51.196;6.204;2022-07-04T11:36:13;25.40;40.60
49132;DHT22;35149;51.196;6.204;2022-07-04T11:38:45;25.40;40.60
49132;DHT22;35149;51.196;6.204;2022-07-04T11:41:12;25.60;40.30
49132;DHT22;35149;51.196;6.204;2022-07-04T11:44:05;25.60;40.40
49132;DHT22;35149;51.196;6.204;2022-07-04T11:46:51;25.80;39.80
49132;DHT22;35149;51.196;6.204;2022-07-04T11:49:18;25.90;39.70
49132;DHT22;35149;51.196;6.204;2022-07-04T11:51:47;26.00;40.20
49132;DHT22;35149;51.196;6.204;2022-07-04T11:54:16;26.10;39.90
49132;DHT22;35149;51.196;6.204;2022-07-04T11:57:28;26.30;39.40
49132;DHT22;35149;51.196;6.204;2022-07-04T12:00:05;26.50;38.20
49132;DHT22;35149;51.196;6.204;2022-07-04T12:02:40;26.60;38.60
49132;DHT22;35149;51.196;6.204;2022-07-04T12:05:11;26.70;39.10
49132;DHT22;35149;51.196;6.204;2022-07-04T12:07:43;26.80;38.20
49132;DHT22;35149;51.196;6.204;2022-07-04T12:10:31;26.90;37.50
49132;DHT22;35149;51.196;6.204;2022-07-04T12:13:05;26.90;37.30
49132;DHT22;35149;51.196;6.204;2022-07-04T12:15:44;26.90;36.40
49132;DHT22;35149;51.196;6.204;2022-07-04T12:20:49;26.90;36.00
49132;DHT22;35149;51.196;6.204;2022-07-04T12:23:20;26.90;36.60
49132;DHT22;35149;51.196;6.204;2022-07-04T12:25:48;26.90;36.70
49132;DHT22;35149;51.196;6.204;2022-07-04T12:28:17;27.00;36.40
49132;DHT22;35149;51.196;6.204;2022-07-04T12:30:52;27.10;36.70
49132;DHT22;35149;51.196;6.204;2022-07-04T12:33:25;27.20;36.60
49132;DHT22;35149;51.196;6.204;2022-07-04T12:38:46;27.50;36.50
49132;DHT22;35149;51.196;6.204;2022-07-04T12:41:14;27.60;37.20
49132;DHT22;35149;51.196;6.204;2022-07-04T12:43:50;27.70;35.80
49132;DHT22;35149;51.196;6.204;2022-07-04T12:46:26;28.00;34.90
49132;DHT22;35149;51.196;6.204;2022-07-04T12:48:57;28.10;35.30
49132;DHT22;35149;51.196;6.204;2022-07-04T12:51:31;28.30;36.50
49132;DHT22;35149;51.196;6.204;2022-07-04T12:54:06;28.40;36.20
49132;DHT22;35149;51.196;6.204;2022-07-04T12:59:05;28.80;35.20
49132;DHT22;35149;51.196;6.204;2022-07-04T13:01:40;28.90;34.30
49132;DHT22;35149;51.196;6.204;2022-07-04T13:04:15;29.10;34.00
49132;DHT22;35149;51.196;6.204;2022-07-04T13:06:43;29.10;33.90
49132;DHT22;35149;51.196;6.204;2022-07-04T13:09:15;29.20;34.20
49132;DHT22;35149;51.196;6.204;2022-07-04T13:11:44;29.10;33.90
49132;DHT22;35149;51.196;6.204;2022-07-04T13:14:31;29.10;33.70
49132;DHT22;35149;51.196;6.204;2022-07-04T13:16:58;29.00;33.90
49132;DHT22;35149;51.196;6.204;2022-07-04T13:19:25;29.00;33.70
49132;DHT22;35149;51.196;6.204;2022-07-04T13:21:55;29.10;33.60
49132;DHT22;35149;51.196;6.204;2022-07-04T13:24:31;29.10;33.50
49132;DHT22;35149;51.196;6.204;2022-07-04T13:26:58;29.00;33.50
49132;DHT22;35149;51.196;6.204;2022-07-04T13:29:25;29.00;33.30
49132;DHT22;35149;51.196;6.204;2022-07-04T13:31:55;29.00;33.40
49132;DHT22;35149;51.196;6.204;2022-07-04T13:34:22;29.00;33.90
49132;DHT22;35149;51.196;6.204;2022-07-04T13:36:51;29.20;34.40
49132;DHT22;35149;51.196;6.204;2022-07-04T13:39:24;29.70;35.60
49132;DHT22;35149;51.196;6.204;2022-07-04T13:42:11;30.60;36.40
49132;DHT22;35149;51.196;6.204;2022-07-04T13:44:38;31.80;36.20
49132;DHT22;35149;51.196;6.204;2022-07-04T13:47:10;33.00;34.40
49132;DHT22;35149;51.196;6.204;2022-07-04T13:49:39;34.30;33.40
49132;DHT22;35149;51.196;6.204;2022-07-04T13:52:06;35.60;32.90
49132;DHT22;35149;51.196;6.204;2022-07-04T13:54:33;36.90;30.90
49132;DHT22;35149;51.196;6.204;2022-07-04T13:57:04;37.70;29.40
49132;DHT22;35149;51.196;6.204;2022-07-04T13:59:33;38.10;30.30
49132;DHT22;35149;51.196;6.204;2022-07-04T14:02:00;38.40;28.40
49132;DHT22;35149;51.196;6.204;2022-07-04T14:04:32;38.60;28.30
49132;DHT22;35149;51.196;6.204;2022-07-04T14:06:59;38.90;27.90
49132;DHT22;35149;51.196;6.204;2022-07-04T14:09:30;39.00;26.60
49132;DHT22;35149;51.196;6.204;2022-07-04T14:11:56;39.00;26.30
49132;DHT22;35149;51.196;6.204;2022-07-04T14:14:23;38.90;26.40
49132;DHT22;35149;51.196;6.204;2022-07-04T14:16:55;38.80;26.60
49132;DHT22;35149;51.196;6.204;2022-07-04T14:19:27;38.90;27.00
49132;DHT22;35149;51.196;6.204;2022-07-04T14:21:53;39.20;26.80
49132;DHT22;35149;51.196;6.204;2022-07-04T14:24:26;39.40;26.10
49132;DHT22;35149;51.196;6.204;2022-07-04T14:26:53;39.60;26.10
49132;DHT22;35149;51.196;6.204;2022-07-04T14:29:25;39.70;26.00
49132;DHT22;35149;51.196;6.204;2022-07-04T14:31:51;40.10;26.10
49132;DHT22;35149;51.196;6.204;2022-07-04T14:34:18;40.40;25.90
49132;DHT22;35149;51.196;6.204;2022-07-04T14:36:47;40.90;25.50
49132;DHT22;35149;51.196;6.204;2022-07-04T14:39:18;41.40;25.10
49132;DHT22;35149;51.196;6.204;2022-07-04T14:41:49;41.90;25.00
49132;DHT22;35149;51.196;6.204;2022-07-04T14:44:20;42.50;24.30
49132;DHT22;35149;51.196;6.204;2022-07-04T14:46:47;43.00;24.70
49132;DHT22;35149;51.196;6.204;2022-07-04T14:49:16;43.40;24.00
49132;DHT22;35149;51.196;6.204;2022-07-04T14:51:43;43.90;23.90
49132;DHT22;35149;51.196;6.204;2022-07-04T14:54:12;44.30;24.10
49132;DHT22;35149;51.196;6.204;2022-07-04T14:56:39;44.90;23.60
49132;DHT22;35149;51.196;6.204;2022-07-04T14:59:09;45.30;23.50
49132;DHT22;35149;51.196;6.204;2022-07-04T15:01:38;45.70;23.10
49132;DHT22;35149;51.196;6.204;2022-07-04T15:04:05;46.20;23.10
49132;DHT22;35149;51.196;6.204;2022-07-04T15:06:32;46.60;22.60
49132;DHT22;35149;51.196;6.204;2022-07-04T15:08:59;46.90;22.50
49132;DHT22;35149;51.196;6.204;2022-07-04T15:11:28;47.20;22.50
49132;DHT22;35149;51.196;6.204;2022-07-04T15:13:57;47.30;21.80
49132;DHT22;35149;51.196;6.204;2022-07-04T15:16:27;47.40;21.80
49132;DHT22;35149;51.196;6.204;2022-07-04T15:18:56;47.50;22.10
49132;DHT22;35149;51.196;6.204;2022-07-04T15:21:25;47.50;21.70
49132;DHT22;35149;51.196;6.204;2022-07-04T15:24:12;47.50;21.40
49132;DHT22;35149;51.196;6.204;2022-07-04T15:26:44;47.50;21.30
49132;DHT22;35149;51.196;6.204;2022-07-04T15:29:11;47.50;21.30
49132;DHT22;35149;51.196;6.204;2022-07-04T15:31:42;47.50;21.40
49132;DHT22;35149;51.196;6.204;2022-07-04T15:34:15;47.50;23.00
49132;DHT22;35149;51.196;6.204;2022-07-04T15:36:45;47.60;21.40
49132;DHT22;35149;51.196;6.204;2022-07-04T15:39:13;47.60;21.40
49132;DHT22;35149;51.196;6.204;2022-07-04T15:41:43;47.70;21.20
49132;DHT22;35149;51.196;6.204;2022-07-04T15:44:12;47.80;21.30
49132;DHT22;35149;51.196;6.204;2022-07-04T15:46:39;47.90;21.30
49132;DHT22;35149;51.196;6.204;2022-07-04T15:49:25;48.00;21.10
49132;DHT22;35149;51.196;6.204;2022-07-04T15:51:51;48.30;21.10
49132;DHT22;35149;51.196;6.204;2022-07-04T15:54:18;48.30;20.80
49132;DHT22;35149;51.196;6.204;2022-07-04T15:56:45;48.30;20.90
49132;DHT22;35149;51.196;6.204;2022-07-04T15:59:12;48.30;20.70
49132;DHT22;35149;51.196;6.204;2022-07-04T16:01:40;48.30;20.70
49132;DHT22;35149;51.196;6.204;2022-07-04T16:04:07;48.30;20.80
49132;DHT22;35149;51.196;6.204;2022-07-04T16:06:34;48.40;20.80
49132;DHT22;35149;51.196;6.204;2022-07-04T16:09:01;48.30;20.90
49132;DHT22;35149;51.196;6.204;2022-07-04T16:11:28;48.30;20.60
49132;DHT22;35149;51.196;6.204;2022-07-04T16:13:55;47.90;20.40
49132;DHT22;35149;51.196;6.204;2022-07-04T16:16:22;47.50;20.30